createdAt,value
2023-07-31T00:00:00.648Z,97.18
2023-07-31T00:02:29.276Z,96.90
2023-07-31T00:04:57.805Z,97.02
2023-07-31T00:07:26.348Z,97.07
2023-07-31T00:09:57.754Z,96.96
2023-07-31T00:12:28.199Z,97.25
2023-07-31T00:14:56.961Z,97.89
2023-07-31T00:17:25.379Z,97.98
2023-07-31T00:19:54.067Z,94.96
2023-07-31T00:22:22.593Z,96.20
2023-07-31T00:24:58.975Z,95.07
2023-07-31T00:27:36.493Z,93.17
2023-07-31T00:30:06.250Z,94.97
2023-07-31T00:32:36.039Z,95.79
2023-07-31T00:35:05.220Z,97.50
2023-07-31T00:37:34.219Z,98.26
2023-07-31T00:40:04.786Z,97.68
2023-07-31T00:42:33.751Z,97.88
2023-07-31T00:45:04.292Z,96.19
2023-07-31T00:47:34.039Z,94.98
2023-07-31T00:50:02.659Z,95.18
2023-07-31T00:52:33.249Z,95.28
2023-07-31T00:55:02.693Z,95.88
2023-07-31T00:57:35.036Z,95.73
2023-07-31T01:00:05.960Z,95.38
2023-07-31T01:02:35.744Z,95.13
2023-07-31T01:05:04.828Z,94.33
2023-07-31T01:07:40.908Z,93.95
2023-07-31T01:10:15.547Z,93.88
2023-07-31T01:12:44.817Z,93.66
2023-07-31T01:15:18.717Z,94.07
2023-07-31T01:17:47.775Z,94.24
2023-07-31T01:20:19.355Z,94.52
2023-07-31T01:23:25.148Z,94.70
2023-07-31T01:26:04.303Z,94.34
2023-07-31T01:28:38.842Z,94.36
2023-07-31T01:31:10.377Z,94.43
2023-07-31T01:33:40.829Z,94.27
2023-07-31T01:36:09.970Z,93.96
2023-07-31T01:38:38.488Z,94.28
2023-07-31T01:41:08.488Z,94.17
2023-07-31T01:43:37.413Z,93.80
2023-07-31T01:46:08.008Z,94.42
2023-07-31T01:48:38.188Z,94.53
2023-07-31T01:51:06.673Z,94.55
2023-07-31T01:53:35.516Z,94.94
2023-07-31T01:56:04.371Z,94.84
2023-07-31T01:58:35.151Z,95.16
2023-07-31T02:01:03.858Z,95.40
2023-07-31T02:03:34.480Z,95.46
2023-07-31T02:06:03.489Z,94.72
2023-07-31T02:08:32.068Z,95.00
2023-07-31T02:11:00.783Z,86.34
2023-07-31T02:13:29.289Z,81.17
2023-07-31T02:15:59.692Z,79.09
2023-07-31T02:18:28.757Z,75.81
2023-07-31T02:21:01.936Z,74.79
2023-07-31T02:23:30.565Z,72.59
2023-07-31T02:25:59.233Z,68.95
2023-07-31T02:28:27.869Z,67.40
2023-07-31T02:30:58.974Z,64.74
2023-07-31T02:33:28.130Z,63.16
2023-07-31T02:35:56.938Z,63.81
2023-07-31T02:38:27.800Z,63.64
2023-07-31T02:40:56.273Z,64.26
2023-07-31T02:43:24.860Z,62.09
2023-07-31T02:45:54.330Z,66.54
2023-07-31T02:48:24.514Z,77.68
2023-07-31T02:50:53.136Z,81.47
2023-07-31T02:53:21.737Z,83.98
2023-07-31T02:55:50.468Z,84.65
2023-07-31T02:58:19.127Z,85.67
2023-07-31T03:00:47.884Z,86.66
2023-07-31T03:03:16.556Z,86.49
2023-07-31T03:05:46.518Z,86.58
2023-07-31T03:08:16.662Z,87.08
2023-07-31T03:10:45.321Z,87.61
2023-07-31T03:13:14.032Z,87.72
2023-07-31T03:15:44.828Z,87.59
2023-07-31T03:18:13.705Z,87.93
2023-07-31T03:20:46.563Z,88.06
2023-07-31T03:23:15.621Z,88.07
2023-07-31T03:25:44.584Z,87.95
2023-07-31T03:28:13.964Z,88.08
2023-07-31T03:30:42.402Z,88.03
2023-07-31T03:33:11.396Z,87.44
2023-07-31T03:35:40.361Z,87.79
2023-07-31T03:38:12.468Z,86.56
2023-07-31T03:40:41.401Z,86.60
2023-07-31T03:43:09.784Z,86.44
2023-07-31T03:45:40.442Z,86.13
2023-07-31T03:48:10.046Z,85.95
2023-07-31T03:50:38.558Z,85.32
2023-07-31T03:53:07.033Z,85.46
2023-07-31T03:55:37.207Z,85.24
2023-07-31T03:58:06.321Z,84.48
2023-07-31T04:00:34.965Z,84.12
2023-07-31T04:03:03.735Z,82.33
2023-07-31T04:05:34.069Z,80.45
2023-07-31T04:08:02.695Z,78.90
2023-07-31T04:10:32.525Z,78.67
2023-07-31T04:13:02.922Z,77.74
2023-07-31T04:15:31.304Z,78.17
2023-07-31T04:17:59.996Z,78.26
2023-07-31T04:20:28.491Z,78.40
2023-07-31T04:22:56.973Z,78.38
2023-07-31T04:25:25.569Z,78.04
2023-07-31T04:27:55.647Z,77.79
2023-07-31T04:30:25.474Z,77.51
2023-07-31T04:32:54.673Z,76.64
2023-07-31T04:35:23.237Z,75.87
2023-07-31T04:37:51.993Z,76.00
2023-07-31T04:40:20.400Z,76.39
2023-07-31T04:42:49.871Z,75.51
2023-07-31T04:45:18.721Z,75.74
2023-07-31T04:47:49.288Z,74.57
2023-07-31T04:50:19.332Z,74.23
2023-07-31T04:52:47.811Z,74.34
2023-07-31T04:55:17.734Z,74.18
2023-07-31T04:57:46.139Z,74.13
2023-07-31T05:00:15.268Z,73.34
2023-07-31T05:02:44.411Z,73.66
2023-07-31T05:05:14.466Z,74.58
2023-07-31T05:07:43.223Z,74.60
2023-07-31T05:10:12.102Z,74.18
2023-07-31T05:12:40.735Z,74.92
2023-07-31T05:15:10.565Z,74.88
2023-07-31T05:17:39.311Z,74.97
2023-07-31T05:20:09.342Z,74.36
2023-07-31T05:22:41.273Z,74.11
2023-07-31T05:25:10.650Z,73.94
2023-07-31T05:27:39.255Z,73.25
2023-07-31T05:30:09.289Z,72.75
2023-07-31T05:32:37.819Z,73.23
2023-07-31T05:35:07.420Z,71.13
2023-07-31T05:37:35.961Z,70.36
2023-07-31T05:40:07.416Z,69.90
2023-07-31T05:42:37.978Z,69.92
2023-07-31T05:45:08.971Z,69.90
2023-07-31T05:47:37.608Z,69.47
2023-07-31T05:50:06.889Z,68.70
2023-07-31T05:52:35.345Z,68.47
2023-07-31T05:55:05.520Z,68.46
2023-07-31T05:57:34.328Z,67.68
2023-07-31T06:00:02.818Z,66.38
2023-07-31T06:02:37.797Z,65.46
2023-07-31T06:05:07.681Z,65.88
2023-07-31T06:07:37.436Z,66.69
2023-07-31T06:10:10.926Z,66.87
2023-07-31T06:12:39.832Z,66.76
2023-07-31T06:15:09.090Z,65.81
2023-07-31T06:17:37.815Z,65.83
2023-07-31T06:20:09.208Z,64.25
2023-07-31T06:22:37.711Z,64.08
2023-07-31T06:25:08.539Z,63.66
2023-07-31T06:27:37.509Z,62.55
2023-07-31T06:30:08.964Z,61.78
2023-07-31T06:32:38.046Z,60.25
2023-07-31T06:35:07.483Z,60.20
2023-07-31T06:37:38.079Z,60.38
2023-07-31T06:40:12.602Z,57.82
2023-07-31T06:42:41.769Z,57.10
2023-07-31T06:45:11.217Z,57.97
2023-07-31T06:47:40.309Z,59.49
2023-07-31T06:50:12.685Z,57.70
2023-07-31T06:52:42.024Z,55.62
2023-07-31T06:55:21.876Z,54.87
2023-07-31T06:57:51.284Z,55.63
2023-07-31T07:00:20.027Z,54.50
2023-07-31T07:02:49.829Z,52.93
2023-07-31T07:05:19.198Z,52.26
2023-07-31T07:07:48.205Z,51.35
2023-07-31T07:10:17.474Z,50.76
2023-07-31T07:12:49.290Z,49.82
2023-07-31T07:15:18.380Z,50.93
2023-07-31T07:17:47.055Z,50.27
2023-07-31T07:20:15.707Z,50.21
2023-07-31T07:22:45.122Z,49.50
2023-07-31T07:25:13.687Z,49.48
2023-07-31T07:27:42.758Z,50.01
2023-07-31T07:30:13.288Z,50.10
2023-07-31T07:32:41.957Z,48.86
2023-07-31T07:35:10.688Z,48.66
2023-07-31T07:37:45.046Z,48.37
2023-07-31T07:40:14.702Z,48.38
2023-07-31T07:42:43.313Z,47.58
2023-07-31T07:45:13.426Z,47.89
2023-07-31T07:47:43.408Z,46.90
2023-07-31T07:50:13.179Z,44.85
2023-07-31T07:52:44.411Z,44.54
2023-07-31T07:55:13.207Z,44.32
2023-07-31T07:57:41.532Z,44.32
2023-07-31T08:00:11.793Z,44.98
2023-07-31T08:02:44.529Z,44.62
2023-07-31T08:05:13.545Z,45.34
2023-07-31T08:07:41.986Z,44.79
2023-07-31T08:10:10.847Z,44.73
2023-07-31T08:12:39.311Z,44.51
2023-07-31T08:15:09.466Z,43.95
2023-07-31T08:17:39.907Z,43.81
2023-07-31T08:20:11.673Z,42.77
2023-07-31T08:22:40.348Z,43.25
2023-07-31T08:25:09.722Z,42.74
2023-07-31T08:27:38.358Z,42.58
2023-07-31T08:30:08.210Z,42.65
2023-07-31T08:32:36.873Z,42.64
2023-07-31T08:35:05.783Z,42.59
2023-07-31T08:37:36.137Z,42.12
2023-07-31T08:40:05.426Z,42.01
2023-07-31T08:42:34.978Z,42.14
2023-07-31T08:45:07.457Z,41.49
2023-07-31T08:47:36.019Z,41.58
2023-07-31T08:50:04.627Z,41.35
2023-07-31T08:52:33.374Z,41.55
2023-07-31T08:55:03.953Z,41.36
2023-07-31T08:57:33.296Z,41.75
2023-07-31T09:00:02.086Z,40.68
2023-07-31T09:02:40.947Z,40.21
2023-07-31T09:05:11.399Z,39.21
2023-07-31T09:07:40.441Z,39.05
2023-07-31T09:10:11.525Z,39.69
2023-07-31T09:12:40.518Z,39.63
2023-07-31T09:15:15.326Z,39.31
2023-07-31T09:17:49.999Z,39.64
2023-07-31T09:20:20.184Z,38.80
2023-07-31T09:22:51.602Z,40.33
2023-07-31T09:25:22.789Z,40.78
2023-07-31T09:27:53.308Z,40.87
2023-07-31T09:30:22.400Z,38.99
2023-07-31T09:32:52.345Z,38.50
2023-07-31T09:35:22.762Z,39.02
2023-07-31T09:37:52.875Z,39.21
2023-07-31T09:40:30.960Z,38.62
2023-07-31T09:43:00.443Z,39.15
2023-07-31T09:45:40.733Z,37.57
2023-07-31T09:48:11.827Z,36.96
2023-07-31T09:50:41.587Z,38.19
2023-07-31T09:53:11.037Z,38.05
2023-07-31T09:55:42.073Z,37.74
2023-07-31T09:58:12.728Z,37.14
2023-07-31T10:00:41.748Z,36.96
2023-07-31T10:03:12.500Z,37.96
2023-07-31T10:05:45.001Z,37.74
2023-07-31T10:08:16.518Z,38.66
2023-07-31T10:10:47.777Z,38.81
2023-07-31T10:13:16.664Z,37.85
2023-07-31T10:15:45.538Z,38.05
2023-07-31T10:18:14.250Z,38.20
2023-07-31T10:20:42.813Z,38.65
2023-07-31T10:23:11.909Z,37.78
2023-07-31T10:25:41.403Z,38.77
2023-07-31T10:28:13.061Z,38.36
2023-07-31T10:30:42.087Z,39.15
2023-07-31T10:33:10.745Z,39.11
2023-07-31T10:35:39.500Z,39.27
2023-07-31T10:38:12.944Z,39.72
2023-07-31T10:40:44.824Z,38.92
2023-07-31T10:43:26.565Z,40.04
2023-07-31T10:45:56.101Z,40.40
2023-07-31T10:48:25.227Z,41.38
2023-07-31T10:50:54.525Z,41.62
2023-07-31T10:53:27.327Z,41.26
2023-07-31T10:55:56.336Z,41.62
2023-07-31T10:58:26.510Z,41.59
2023-07-31T11:00:58.615Z,41.11
2023-07-31T11:03:28.648Z,40.33
2023-07-31T11:06:04.760Z,40.11
2023-07-31T11:08:34.763Z,40.54
2023-07-31T11:11:12.333Z,40.94
2023-07-31T11:13:49.627Z,40.13
2023-07-31T11:16:19.542Z,39.20
2023-07-31T11:18:50.513Z,38.40
2023-07-31T11:21:21.572Z,38.97
2023-07-31T11:23:50.850Z,37.82
2023-07-31T11:26:19.996Z,38.48
2023-07-31T11:28:52.255Z,38.57
2023-07-31T11:31:20.804Z,39.07
2023-07-31T11:33:50.472Z,38.05
2023-07-31T11:36:19.894Z,38.44
2023-07-31T11:38:49.471Z,38.75
2023-07-31T11:41:19.333Z,38.28
2023-07-31T11:43:48.639Z,38.42
2023-07-31T11:46:20.460Z,39.46
2023-07-31T11:48:49.543Z,39.60
2023-07-31T11:51:18.044Z,40.39
2023-07-31T11:53:48.380Z,41.58
2023-07-31T11:56:19.527Z,42.67
2023-07-31T11:58:51.962Z,43.78
2023-07-31T12:01:23.779Z,43.30
2023-07-31T12:03:56.073Z,43.61
2023-07-31T12:06:24.975Z,43.45
2023-07-31T12:08:54.586Z,43.81
2023-07-31T12:11:23.065Z,44.44
2023-07-31T12:13:51.625Z,44.62
2023-07-31T12:16:21.768Z,45.13
2023-07-31T12:18:52.046Z,45.96
2023-07-31T12:21:22.353Z,45.24
2023-07-31T12:23:50.901Z,46.54
2023-07-31T12:26:19.564Z,46.26
2023-07-31T12:28:49.910Z,46.17
2023-07-31T12:31:19.395Z,46.92
2023-07-31T12:33:59.579Z,46.86
2023-07-31T12:36:29.212Z,46.70
2023-07-31T12:38:59.849Z,47.15
2023-07-31T12:41:30.318Z,47.38
2023-07-31T12:43:58.809Z,47.26
2023-07-31T12:46:27.498Z,47.34
2023-07-31T12:48:57.476Z,46.98
2023-07-31T12:51:26.379Z,46.12
2023-07-31T12:53:54.826Z,46.41
2023-07-31T12:56:23.598Z,46.90
2023-07-31T12:58:52.055Z,47.84
2023-07-31T13:01:20.630Z,47.80
2023-07-31T13:03:49.787Z,48.48
2023-07-31T13:06:19.839Z,48.37
2023-07-31T13:08:48.257Z,48.28
2023-07-31T13:11:17.183Z,47.96
2023-07-31T13:13:45.937Z,48.06
2023-07-31T13:16:15.063Z,47.46
2023-07-31T13:18:43.538Z,47.84
2023-07-31T13:21:12.083Z,48.77
2023-07-31T13:23:41.845Z,48.16
2023-07-31T13:26:10.385Z,48.71
2023-07-31T13:28:39.187Z,50.10
2023-07-31T13:31:07.751Z,51.29
2023-07-31T13:33:38.681Z,52.22
2023-07-31T13:36:07.454Z,53.07
2023-07-31T13:38:35.810Z,53.74
2023-07-31T13:41:06.718Z,54.34
2023-07-31T13:43:35.324Z,54.30
2023-07-31T13:46:08.043Z,54.81
2023-07-31T13:48:37.281Z,55.32
2023-07-31T13:51:06.303Z,55.58
2023-07-31T13:53:35.044Z,56.29
2023-07-31T13:56:08.242Z,56.34
2023-07-31T13:58:38.396Z,57.03
2023-07-31T14:01:06.913Z,57.11
2023-07-31T14:03:35.968Z,57.34
2023-07-31T14:06:05.347Z,56.82
2023-07-31T14:08:34.935Z,57.38
2023-07-31T14:11:03.421Z,57.25
2023-07-31T14:13:31.980Z,57.45
2023-07-31T14:16:02.126Z,57.26
2023-07-31T14:18:30.955Z,56.97
2023-07-31T14:20:59.848Z,56.62
2023-07-31T14:23:28.365Z,56.55
2023-07-31T14:25:56.757Z,56.55
2023-07-31T14:28:25.647Z,56.16
2023-07-31T14:30:54.155Z,56.25
2023-07-31T14:33:23.992Z,56.70
2023-07-31T14:35:52.397Z,56.98
2023-07-31T14:38:21.007Z,57.11
2023-07-31T14:40:49.704Z,57.07
2023-07-31T14:43:18.470Z,57.16
2023-07-31T14:45:47.963Z,57.23
2023-07-31T14:48:16.507Z,57.56
2023-07-31T14:50:46.321Z,57.39
2023-07-31T14:53:17.677Z,57.38
2023-07-31T14:55:46.270Z,57.57
2023-07-31T14:58:17.028Z,57.47
2023-07-31T15:00:45.631Z,57.05
2023-07-31T15:03:14.123Z,56.30
2023-07-31T15:05:43.712Z,56.23
2023-07-31T15:08:14.225Z,54.89
2023-07-31T15:10:42.930Z,54.74
2023-07-31T15:13:11.440Z,55.08
2023-07-31T15:15:40.781Z,55.65
2023-07-31T15:18:09.466Z,56.00
2023-07-31T15:20:38.459Z,57.26
2023-07-31T15:23:07.185Z,57.70
2023-07-31T15:25:37.197Z,58.35
2023-07-31T15:28:06.594Z,59.35
2023-07-31T15:30:35.521Z,59.78
2023-07-31T15:33:04.066Z,60.42
2023-07-31T15:35:32.778Z,60.99
2023-07-31T15:38:01.465Z,61.48
2023-07-31T15:40:29.972Z,61.97
2023-07-31T15:43:01.815Z,62.01
2023-07-31T15:45:31.415Z,62.06
2023-07-31T15:48:00.041Z,62.18
2023-07-31T15:50:28.675Z,62.64
2023-07-31T15:52:57.619Z,63.10
2023-07-31T15:55:26.523Z,63.56
2023-07-31T15:57:55.778Z,63.49
2023-07-31T16:00:25.682Z,61.09
2023-07-31T16:02:57.542Z,61.91
2023-07-31T16:05:26.102Z,59.17
2023-07-31T16:07:54.813Z,59.38
2023-07-31T16:10:24.101Z,58.98
2023-07-31T16:12:52.738Z,59.58
2023-07-31T16:15:21.282Z,57.85
2023-07-31T16:17:51.796Z,57.62
2023-07-31T16:20:20.553Z,58.35
2023-07-31T16:22:48.962Z,58.59
2023-07-31T16:25:18.499Z,57.98
2023-07-31T16:27:46.918Z,57.56
2023-07-31T16:30:15.871Z,58.43
2023-07-31T16:32:44.737Z,58.87
2023-07-31T16:35:15.590Z,59.53
2023-07-31T16:37:45.150Z,59.04
2023-07-31T16:40:14.792Z,59.86
2023-07-31T16:42:43.814Z,59.10
2023-07-31T16:45:12.743Z,58.10
2023-07-31T16:47:41.450Z,59.47
2023-07-31T16:50:10.947Z,59.54
2023-07-31T16:52:40.831Z,59.58
2023-07-31T16:55:12.880Z,59.44
2023-07-31T16:57:42.502Z,60.25
2023-07-31T17:00:12.158Z,59.85
2023-07-31T17:02:41.194Z,59.50
2023-07-31T17:05:11.862Z,59.75
2023-07-31T17:07:41.806Z,60.93
2023-07-31T17:10:11.493Z,61.49
2023-07-31T17:12:41.176Z,62.66
2023-07-31T17:15:11.313Z,62.75
2023-07-31T17:17:39.851Z,63.88
2023-07-31T17:20:10.133Z,63.59
2023-07-31T17:22:47.992Z,64.32
2023-07-31T17:25:19.832Z,64.26
2023-07-31T17:27:51.346Z,63.70
2023-07-31T17:30:22.088Z,64.35
2023-07-31T17:32:51.148Z,64.69
2023-07-31T17:35:19.748Z,65.01
2023-07-31T17:37:48.161Z,65.05
2023-07-31T17:40:18.320Z,65.49
2023-07-31T17:42:50.152Z,65.72
2023-07-31T17:45:19.711Z,66.19
2023-07-31T17:47:48.248Z,66.40
2023-07-31T17:50:17.587Z,66.39
2023-07-31T17:52:46.065Z,66.58
2023-07-31T17:55:14.589Z,67.03
2023-07-31T17:57:45.237Z,68.03
2023-07-31T18:00:15.122Z,68.58
2023-07-31T18:02:45.058Z,68.96
2023-07-31T18:05:13.940Z,69.28
2023-07-31T18:07:42.799Z,69.69
2023-07-31T18:10:12.057Z,70.15
2023-07-31T18:12:40.456Z,71.16
2023-07-31T18:15:12.292Z,71.14
2023-07-31T18:17:41.323Z,72.54
2023-07-31T18:20:12.806Z,73.12
2023-07-31T18:22:43.716Z,73.91
2023-07-31T18:25:14.127Z,74.83
2023-07-31T18:27:42.746Z,75.47
2023-07-31T18:30:14.942Z,75.78
2023-07-31T18:32:43.845Z,77.01
2023-07-31T18:35:12.472Z,77.39
2023-07-31T18:37:40.974Z,77.26
2023-07-31T18:40:10.820Z,78.14
2023-07-31T18:42:39.870Z,78.61
2023-07-31T18:45:09.562Z,79.25
2023-07-31T18:47:39.844Z,79.84
2023-07-31T18:50:10.507Z,79.29
2023-07-31T18:52:40.629Z,79.77
2023-07-31T18:55:09.799Z,79.30
2023-07-31T18:57:38.285Z,79.18
2023-07-31T19:00:07.821Z,78.12
2023-07-31T19:02:37.007Z,78.33
2023-07-31T19:05:07.900Z,79.61
2023-07-31T19:07:36.503Z,78.85
2023-07-31T19:10:15.672Z,78.83
2023-07-31T19:12:47.208Z,78.02
2023-07-31T19:15:15.772Z,78.55
2023-07-31T19:17:47.824Z,76.63
2023-07-31T19:20:18.258Z,76.16
2023-07-31T19:22:46.749Z,76.75
2023-07-31T19:25:15.411Z,80.05
2023-07-31T19:27:45.148Z,81.24
2023-07-31T19:30:17.308Z,82.44
2023-07-31T19:32:45.872Z,83.63
2023-07-31T19:35:14.772Z,84.43
2023-07-31T19:37:44.875Z,84.86
2023-07-31T19:40:13.721Z,87.69
2023-07-31T19:42:42.607Z,88.70
2023-07-31T19:45:12.196Z,91.06
2023-07-31T19:47:40.829Z,91.24
2023-07-31T19:50:10.581Z,91.27
2023-07-31T19:52:39.269Z,91.22
2023-07-31T19:55:10.075Z,92.65
2023-07-31T19:57:38.670Z,93.46
2023-07-31T20:00:11.237Z,93.99
2023-07-31T20:02:40.369Z,93.75
2023-07-31T20:05:12.056Z,93.33
2023-07-31T20:07:40.788Z,92.51
2023-07-31T20:10:11.681Z,93.41
2023-07-31T20:12:40.481Z,94.10
2023-07-31T20:15:19.717Z,94.39
2023-07-31T20:17:49.685Z,94.94
2023-07-31T20:20:18.601Z,95.35
2023-07-31T20:22:47.230Z,95.72
2023-07-31T20:25:17.591Z,96.78
2023-07-31T20:27:46.315Z,97.61
2023-07-31T20:30:14.863Z,97.91
2023-07-31T20:32:43.467Z,98.27
2023-07-31T20:35:11.855Z,98.68
2023-07-31T20:37:40.360Z,98.82
2023-07-31T20:40:10.328Z,99.03
2023-07-31T20:42:40.630Z,99.03
2023-07-31T20:45:10.423Z,97.78
2023-07-31T20:47:39.806Z,98.27
2023-07-31T20:50:08.646Z,98.78
2023-07-31T20:52:37.321Z,99.32
2023-07-31T20:55:06.678Z,99.12
2023-07-31T20:57:35.411Z,98.94
2023-07-31T21:00:06.248Z,98.25
2023-07-31T21:02:35.433Z,98.74
2023-07-31T21:05:04.602Z,99.36
2023-07-31T21:07:33.405Z,99.20
2023-07-31T21:10:01.924Z,99.82
2023-07-31T21:12:32.325Z,99.91
2023-07-31T21:15:01.089Z,100.00
2023-07-31T21:17:34.524Z,100.00
2023-07-31T21:20:03.510Z,100.00
2023-07-31T21:22:32.451Z,100.00
2023-07-31T21:25:01.156Z,100.00
2023-07-31T21:27:32.122Z,100.00
2023-07-31T21:30:00.957Z,100.00
2023-07-31T21:32:35.272Z,100.00
2023-07-31T21:35:03.934Z,100.00
2023-07-31T21:37:32.455Z,100.00
2023-07-31T21:40:01.144Z,100.00
2023-07-31T21:42:29.918Z,100.00
2023-07-31T21:44:58.663Z,100.00
2023-07-31T21:47:27.381Z,100.00
2023-07-31T21:49:58.199Z,100.00
2023-07-31T21:52:27.307Z,100.00
2023-07-31T21:54:57.573Z,100.00
2023-07-31T21:57:26.458Z,100.00
2023-07-31T21:59:55.108Z,100.00
2023-07-31T22:02:23.852Z,100.00
2023-07-31T22:04:52.452Z,100.00
2023-07-31T22:07:22.765Z,100.00
2023-07-31T22:09:54.371Z,100.00
2023-07-31T22:12:26.321Z,100.00
2023-07-31T22:14:54.948Z,100.00
2023-07-31T22:17:24.127Z,100.00
2023-07-31T22:19:52.922Z,100.00
2023-07-31T22:22:22.907Z,100.00
2023-07-31T22:24:51.628Z,100.00
2023-07-31T22:27:20.364Z,100.00
2023-07-31T22:29:51.033Z,100.00
2023-07-31T22:32:19.976Z,100.00
2023-07-31T22:34:48.576Z,99.80
2023-07-31T22:37:18.432Z,100.00
2023-07-31T22:39:49.922Z,100.00
2023-07-31T22:42:18.580Z,100.00
2023-07-31T22:44:47.111Z,99.72
2023-07-31T22:47:15.696Z,99.34
2023-07-31T22:49:44.205Z,100.00
2023-07-31T22:52:12.748Z,100.00
2023-07-31T22:54:41.385Z,100.00
2023-07-31T22:57:11.516Z,100.00
2023-07-31T22:59:39.975Z,100.00
2023-07-31T23:02:09.784Z,100.00
2023-07-31T23:04:39.931Z,100.00
2023-07-31T23:07:08.876Z,100.00
2023-07-31T23:09:37.561Z,100.00
2023-07-31T23:12:06.710Z,100.00
2023-07-31T23:14:36.517Z,100.00
2023-07-31T23:17:05.690Z,100.00
2023-07-31T23:19:34.296Z,100.00
2023-07-31T23:22:03.114Z,100.00
2023-07-31T23:24:31.944Z,100.00
2023-07-31T23:27:00.569Z,100.00
2023-07-31T23:29:29.051Z,100.00
2023-07-31T23:31:59.435Z,100.00
2023-07-31T23:34:27.975Z,100.00
2023-07-31T23:36:56.784Z,100.00
2023-07-31T23:39:26.218Z,100.00
2023-07-31T23:41:54.883Z,100.00
2023-07-31T23:44:24.200Z,100.00
2023-07-31T23:46:55.078Z,100.00
2023-07-31T23:49:25.603Z,100.00
2023-07-31T23:51:56.407Z,100.00
2023-07-31T23:54:25.838Z,100.00
2023-07-31T23:56:56.154Z,100.00
2023-07-31T23:59:25.230Z,100.00
